sensor_id;sensor_type;location;lat;lon;timestamp;temperature;humidity
18456;DHT22;9357;49.900;8.208;2022-12-18T00:01:01;-6.40;99.90
18456;DHT22;9357;49.900;8.208;2022-12-18T00:02:37;-6.50;99.90
18456;DHT22;9357;49.900;8.208;2022-12-18T00:04:16;-6.50;99.90
18456;DHT22;9357;49.900;8.208;2022-12-18T00:05:51;-6.50;99.90
18456;DHT22;9357;49.900;8.208;2022-12-18T00:07:24;-6.40;99.90
18456;DHT22;9357;49.900;8.208;2022-12-18T00:08:58;-6.50;99.90
18456;DHT22;9357;49.900;8.208;2022-12-18T00:10:31;-6.50;99.90
18456;DHT22;9357;49.900;8.208;2022-12-18T00:12:04;-6.50;99.90
18456;DHT22;9357;49.900;8.208;2022-12-18T00:13:47;-6.50;99.90
18456;DHT22;9357;49.900;8.208;2022-12-18T00:15:20;-6.50;99.90
18456;DHT22;9357;49.900;8.208;2022-12-18T00:16:53;-6.60;99.90
18456;DHT22;9357;49.900;8.208;2022-12-18T00:18:26;-6.60;99.90
18456;DHT22;9357;49.900;8.208;2022-12-18T00:19:58;-6.60;99.90
18456;DHT22;9357;49.900;8.208;2022-12-18T00:21:32;-6.60;99.90
18456;DHT22;9357;49.900;8.208;2022-12-18T00:23:05;-6.60;99.90
18456;DHT22;9357;49.900;8.208;2022-12-18T00:24:41;-6.60;99.90
18456;DHT22;9357;49.900;8.208;2022-12-18T00:26:15;-6.60;99.90
18456;DHT22;9357;49.900;8.208;2022-12-18T00:27:47;-6.60;99.90
18456;DHT22;9357;49.900;8.208;2022-12-18T00:29:21;-6.60;99.90
18456;DHT22;9357;49.900;8.208;2022-12-18T00:31:00;-6.60;99.90
18456;DHT22;9357;49.900;8.208;2022-12-18T00:32:33;-6.60;99.90
18456;DHT22;9357;49.900;8.208;2022-12-18T00:34:06;-6.60;99.90
18456;DHT22;9357;49.900;8.208;2022-12-18T00:35:38;-6.60;99.90
18456;DHT22;9357;49.900;8.208;2022-12-18T00:37:11;-6.60;99.90
18456;DHT22;9357;49.900;8.208;2022-12-18T00:38:50;-6.60;99.90
18456;DHT22;9357;49.900;8.208;2022-12-18T00:40:23;-6.60;99.90
18456;DHT22;9357;49.900;8.208;2022-12-18T00:41:56;-6.60;99.90
18456;DHT22;9357;49.900;8.208;2022-12-18T00:43:46;-6.60;99.90
18456;DHT22;9357;49.900;8.208;2022-12-18T00:45:19;-6.60;99.90
18456;DHT22;9357;49.900;8.208;2022-12-18T00:46:52;-6.60;99.90
18456;DHT22;9357;49.900;8.208;2022-12-18T00:48:25;-6.60;99.90
18456;DHT22;9357;49.900;8.208;2022-12-18T00:49:57;-6.60;99.90
18456;DHT22;9357;49.900;8.208;2022-12-18T00:51:30;-6.60;99.90
18456;DHT22;9357;49.900;8.208;2022-12-18T00:53:02;-6.60;99.90
18456;DHT22;9357;49.900;8.208;2022-12-18T00:54:35;-6.50;99.90
18456;DHT22;9357;49.900;8.208;2022-12-18T00:56:08;-6.50;99.90
18456;DHT22;9357;49.900;8.208;2022-12-18T00:57:40;-6.50;99.90
18456;DHT22;9357;49.900;8.208;2022-12-18T00:59:13;-6.50;99.90
18456;DHT22;9357;49.900;8.208;2022-12-18T01:00:47;-6.50;99.90
18456;DHT22;9357;49.900;8.208;2022-12-18T01:02:19;-6.50;99.90
18456;DHT22;9357;49.900;8.208;2022-12-18T01:03:51;-6.50;99.90
18456;DHT22;9357;49.900;8.208;2022-12-18T01:05:25;-6.50;99.90
18456;DHT22;9357;49.900;8.208;2022-12-18T01:06:57;-6.40;99.90
18456;DHT22;9357;49.900;8.208;2022-12-18T01:08:30;-6.40;99.90
18456;DHT22;9357;49.900;8.208;2022-12-18T01:10:02;-6.40;99.90
18456;DHT22;9357;49.900;8.208;2022-12-18T01:11:35;-6.40;99.90
18456;DHT22;9357;49.900;8.208;2022-12-18T01:13:08;-6.40;99.90
18456;DHT22;9357;49.900;8.208;2022-12-18T01:14:40;-6.50;99.90
18456;DHT22;9357;49.900;8.208;2022-12-18T01:16:16;-6.50;99.90
18456;DHT22;9357;49.900;8.208;2022-12-18T01:17:51;-6.50;99.90
18456;DHT22;9357;49.900;8.208;2022-12-18T01:19:24;-6.50;99.90
18456;DHT22;9357;49.900;8.208;2022-12-18T01:20:56;-6.50;99.90
18456;DHT22;9357;49.900;8.208;2022-12-18T01:22:29;-6.50;99.90
18456;DHT22;9357;49.900;8.208;2022-12-18T01:24:02;-6.50;99.90
18456;DHT22;9357;49.900;8.208;2022-12-18T01:25:36;-6.50;99.90
18456;DHT22;9357;49.900;8.208;2022-12-18T01:27:09;-6.60;99.90
18456;DHT22;9357;49.900;8.208;2022-12-18T01:28:42;-6.50;99.90
18456;DHT22;9357;49.900;8.208;2022-12-18T01:30:16;-6.60;99.90
18456;DHT22;9357;49.900;8.208;2022-12-18T01:31:50;-6.50;99.90
18456;DHT22;9357;49.900;8.208;2022-12-18T01:33:22;-6.50;99.90
18456;DHT22;9357;49.900;8.208;2022-12-18T01:34:55;-6.50;99.90
18456;DHT22;9357;49.900;8.208;2022-12-18T01:36:31;-6.50;99.90
18456;DHT22;9357;49.900;8.208;2022-12-18T01:38:03;-6.50;99.90
18456;DHT22;9357;49.900;8.208;2022-12-18T01:39:36;-6.50;99.90
18456;DHT22;9357;49.900;8.208;2022-12-18T01:41:09;-6.50;99.90
18456;DHT22;9357;49.900;8.208;2022-12-18T01:42:42;-6.50;99.90
18456;DHT22;9357;49.900;8.208;2022-12-18T01:44:50;-6.50;99.90
18456;DHT22;9357;49.900;8.208;2022-12-18T01:46:26;-6.50;99.90
18456;DHT22;9357;49.900;8.208;2022-12-18T01:48:02;-6.50;99.90
18456;DHT22;9357;49.900;8.208;2022-12-18T01:49:35;-6.50;99.90
18456;DHT22;9357;49.900;8.208;2022-12-18T01:51:09;-6.50;99.90
18456;DHT22;9357;49.900;8.208;2022-12-18T01:52:44;-6.50;99.90
18456;DHT22;9357;49.900;8.208;2022-12-18T01:54:19;-6.50;99.90
18456;DHT22;9357;49.900;8.208;2022-12-18T01:55:53;-6.50;99.90
18456;DHT22;9357;49.900;8.208;2022-12-18T01:57:27;-6.50;99.90
18456;DHT22;9357;49.900;8.208;2022-12-18T01:59:02;-6.60;99.90
18456;DHT22;9357;49.900;8.208;2022-12-18T02:00:35;-6.50;99.90
18456;DHT22;9357;49.900;8.208;2022-12-18T02:02:08;-6.50;99.90
18456;DHT22;9357;49.900;8.208;2022-12-18T02:03:44;-6.50;99.90
18456;DHT22;9357;49.900;8.208;2022-12-18T02:05:21;-6.50;99.90
18456;DHT22;9357;49.900;8.208;2022-12-18T02:07:01;-6.50;99.90
18456;DHT22;9357;49.900;8.208;2022-12-18T02:08:40;-6.60;99.90
18456;DHT22;9357;49.900;8.208;2022-12-18T02:10:18;-6.60;99.90
18456;DHT22;9357;49.900;8.208;2022-12-18T02:11:55;-6.50;99.90
18456;DHT22;9357;49.900;8.208;2022-12-18T02:13:38;-6.50;99.90
18456;DHT22;9357;49.900;8.208;2022-12-18T02:15:17;-6.50;99.90
18456;DHT22;9357;49.900;8.208;2022-12-18T02:16:54;-6.50;99.90
18456;DHT22;9357;49.900;8.208;2022-12-18T02:18:36;-6.60;99.90
18456;DHT22;9357;49.900;8.208;2022-12-18T02:20:16;-6.50;99.90
18456;DHT22;9357;49.900;8.208;2022-12-18T02:22:00;-6.60;99.90
18456;DHT22;9357;49.900;8.208;2022-12-18T02:23:48;-6.60;99.90
18456;DHT22;9357;49.900;8.208;2022-12-18T02:25:39;-6.60;99.90
18456;DHT22;9357;49.900;8.208;2022-12-18T02:27:13;-6.60;99.90
18456;DHT22;9357;49.900;8.208;2022-12-18T02:28:49;-6.60;99.90
18456;DHT22;9357;49.900;8.208;2022-12-18T02:30:23;-6.60;99.90
18456;DHT22;9357;49.900;8.208;2022-12-18T02:31:58;-6.60;99.90
18456;DHT22;9357;49.900;8.208;2022-12-18T02:33:33;-6.60;99.90
18456;DHT22;9357;49.900;8.208;2022-12-18T02:35:12;-6.60;99.90
18456;DHT22;9357;49.900;8.208;2022-12-18T02:36:46;-6.70;99.90
18456;DHT22;9357;49.900;8.208;2022-12-18T02:38:19;-6.70;99.90
18456;DHT22;9357;49.900;8.208;2022-12-18T02:39:53;-6.60;99.90
18456;DHT22;9357;49.900;8.208;2022-12-18T02:41:28;-6.60;99.90
18456;DHT22;9357;49.900;8.208;2022-12-18T02:43:09;-6.70;99.90
18456;DHT22;9357;49.900;8.208;2022-12-18T02:44:43;-6.70;99.90
18456;DHT22;9357;49.900;8.208;2022-12-18T02:46:33;-6.80;99.90
18456;DHT22;9357;49.900;8.208;2022-12-18T02:48:08;-6.80;99.90
18456;DHT22;9357;49.900;8.208;2022-12-18T02:49:47;-6.80;99.90
18456;DHT22;9357;49.900;8.208;2022-12-18T02:51:30;-6.80;99.90
18456;DHT22;9357;49.900;8.208;2022-12-18T02:53:12;-6.80;99.90
18456;DHT22;9357;49.900;8.208;2022-12-18T02:54:57;-6.80;99.90
18456;DHT22;9357;49.900;8.208;2022-12-18T02:56:36;-6.80;99.90
18456;DHT22;9357;49.900;8.208;2022-12-18T02:58:16;-6.90;99.90
18456;DHT22;9357;49.900;8.208;2022-12-18T02:59:56;-6.80;99.90
18456;DHT22;9357;49.900;8.208;2022-12-18T03:01:34;-6.80;99.90
18456;DHT22;9357;49.900;8.208;2022-12-18T03:03:14;-6.80;99.90
18456;DHT22;9357;49.900;8.208;2022-12-18T03:04:52;-6.80;99.90
18456;DHT22;9357;49.900;8.208;2022-12-18T03:06:28;-6.80;99.90
18456;DHT22;9357;49.900;8.208;2022-12-18T03:08:05;-6.90;99.90
18456;DHT22;9357;49.900;8.208;2022-12-18T03:09:42;-6.90;99.90
18456;DHT22;9357;49.900;8.208;2022-12-18T03:11:15;-6.90;99.90
18456;DHT22;9357;49.900;8.208;2022-12-18T03:13:10;-6.90;99.90
18456;DHT22;9357;49.900;8.208;2022-12-18T03:14:45;-6.90;99.90
18456;DHT22;9357;49.900;8.208;2022-12-18T03:16:23;-6.90;99.90
18456;DHT22;9357;49.900;8.208;2022-12-18T03:18:01;-6.90;99.90
18456;DHT22;9357;49.900;8.208;2022-12-18T03:19:35;-6.90;99.90
18456;DHT22;9357;49.900;8.208;2022-12-18T03:21:11;-6.90;99.90
18456;DHT22;9357;49.900;8.208;2022-12-18T03:22:50;-7.00;99.90
18456;DHT22;9357;49.900;8.208;2022-12-18T03:24:24;-7.00;99.90
18456;DHT22;9357;49.900;8.208;2022-12-18T03:26:02;-7.00;99.90
18456;DHT22;9357;49.900;8.208;2022-12-18T03:27:43;-7.10;99.90
18456;DHT22;9357;49.900;8.208;2022-12-18T03:29:21;-7.10;99.90
18456;DHT22;9357;49.900;8.208;2022-12-18T03:30:57;-7.10;99.90
18456;DHT22;9357;49.900;8.208;2022-12-18T03:32:35;-7.10;99.90
18456;DHT22;9357;49.900;8.208;2022-12-18T03:34:14;-7.10;99.90
18456;DHT22;9357;49.900;8.208;2022-12-18T03:35:47;-7.10;99.90
18456;DHT22;9357;49.900;8.208;2022-12-18T03:37:19;-7.10;99.90
18456;DHT22;9357;49.900;8.208;2022-12-18T03:38:52;-7.10;99.90
18456;DHT22;9357;49.900;8.208;2022-12-18T03:40:29;-7.00;99.90
18456;DHT22;9357;49.900;8.208;2022-12-18T03:42:07;-7.10;99.90
18456;DHT22;9357;49.900;8.208;2022-12-18T03:43:46;-7.10;99.90
18456;DHT22;9357;49.900;8.208;2022-12-18T03:45:24;-7.10;99.90
18456;DHT22;9357;49.900;8.208;2022-12-18T03:47:06;-7.20;99.90
18456;DHT22;9357;49.900;8.208;2022-12-18T03:48:44;-7.20;99.90
18456;DHT22;9357;49.900;8.208;2022-12-18T03:50:27;-7.20;99.90
18456;DHT22;9357;49.900;8.208;2022-12-18T03:52:06;-7.20;99.90
18456;DHT22;9357;49.900;8.208;2022-12-18T03:53:46;-7.20;99.90
18456;DHT22;9357;49.900;8.208;2022-12-18T03:55:21;-7.20;99.90
18456;DHT22;9357;49.900;8.208;2022-12-18T03:56:58;-7.20;99.90
18456;DHT22;9357;49.900;8.208;2022-12-18T03:58:33;-7.30;99.90
18456;DHT22;9357;49.900;8.208;2022-12-18T04:00:09;-7.20;99.90
18456;DHT22;9357;49.900;8.208;2022-12-18T04:01:46;-7.20;99.90
18456;DHT22;9357;49.900;8.208;2022-12-18T04:03:20;-7.20;99.90
18456;DHT22;9357;49.900;8.208;2022-12-18T04:04:59;-7.10;99.90
18456;DHT22;9357;49.900;8.208;2022-12-18T04:06:35;-7.10;99.90
18456;DHT22;9357;49.900;8.208;2022-12-18T04:08:07;-7.10;99.90
18456;DHT22;9357;49.900;8.208;2022-12-18T04:09:41;-7.10;99.90
18456;DHT22;9357;49.900;8.208;2022-12-18T04:11:15;-7.10;99.90
18456;DHT22;9357;49.900;8.208;2022-12-18T04:12:47;-7.10;99.90
18456;DHT22;9357;49.900;8.208;2022-12-18T04:14:20;-7.10;99.90
18456;DHT22;9357;49.900;8.208;2022-12-18T04:15:53;-7.00;99.90
18456;DHT22;9357;49.900;8.208;2022-12-18T04:17:25;-7.10;99.90
18456;DHT22;9357;49.900;8.208;2022-12-18T04:19:00;-7.10;99.90
18456;DHT22;9357;49.900;8.208;2022-12-18T04:20:32;-7.10;99.90
18456;DHT22;9357;49.900;8.208;2022-12-18T04:22:04;-7.10;99.90
18456;DHT22;9357;49.900;8.208;2022-12-18T04:23:37;-7.10;99.90
18456;DHT22;9357;49.900;8.208;2022-12-18T04:25:09;-7.10;99.90
18456;DHT22;9357;49.900;8.208;2022-12-18T04:26:42;-7.10;99.90
18456;DHT22;9357;49.900;8.208;2022-12-18T04:28:15;-7.20;99.90
18456;DHT22;9357;49.900;8.208;2022-12-18T04:29:47;-7.10;99.90
18456;DHT22;9357;49.900;8.208;2022-12-18T04:31:20;-7.20;99.90
18456;DHT22;9357;49.900;8.208;2022-12-18T04:32:53;-7.20;99.90
18456;DHT22;9357;49.900;8.208;2022-12-18T04:34:27;-7.20;99.90
18456;DHT22;9357;49.900;8.208;2022-12-18T04:36:01;-7.20;99.90
18456;DHT22;9357;49.900;8.208;2022-12-18T04:37:34;-7.30;99.90
18456;DHT22;9357;49.900;8.208;2022-12-18T04:39:06;-7.30;99.90
18456;DHT22;9357;49.900;8.208;2022-12-18T04:40:39;-7.30;99.90
18456;DHT22;9357;49.900;8.208;2022-12-18T04:42:12;-7.30;99.90
18456;DHT22;9357;49.900;8.208;2022-12-18T04:43:45;-7.30;99.90
18456;DHT22;9357;49.900;8.208;2022-12-18T04:45:17;-7.30;99.90
18456;DHT22;9357;49.900;8.208;2022-12-18T04:46:50;-7.30;99.90
18456;DHT22;9357;49.900;8.208;2022-12-18T04:48:22;-7.30;99.90
18456;DHT22;9357;49.900;8.208;2022-12-18T04:49:57;-7.30;99.90
18456;DHT22;9357;49.900;8.208;2022-12-18T04:51:30;-7.30;99.90
18456;DHT22;9357;49.900;8.208;2022-12-18T04:53:02;-7.30;99.90
18456;DHT22;9357;49.900;8.208;2022-12-18T04:54:35;-7.30;99.90
18456;DHT22;9357;49.900;8.208;2022-12-18T04:56:09;-7.20;99.90
18456;DHT22;9357;49.900;8.208;2022-12-18T04:57:42;-7.20;99.90
18456;DHT22;9357;49.900;8.208;2022-12-18T04:59:15;-7.20;99.90
18456;DHT22;9357;49.900;8.208;2022-12-18T05:00:48;-7.20;99.90
18456;DHT22;9357;49.900;8.208;2022-12-18T05:02:20;-7.20;99.90
18456;DHT22;9357;49.900;8.208;2022-12-18T05:03:53;-7.20;99.90
18456;DHT22;9357;49.900;8.208;2022-12-18T05:05:27;-7.20;99.90
18456;DHT22;9357;49.900;8.208;2022-12-18T05:07:00;-7.20;99.90
18456;DHT22;9357;49.900;8.208;2022-12-18T05:08:33;-7.20;99.90
18456;DHT22;9357;49.900;8.208;2022-12-18T05:10:06;-7.20;99.90
18456;DHT22;9357;49.900;8.208;2022-12-18T05:11:40;-7.30;99.90
18456;DHT22;9357;49.900;8.208;2022-12-18T05:13:12;-7.20;99.90
18456;DHT22;9357;49.900;8.208;2022-12-18T05:14:45;-7.30;99.90
18456;DHT22;9357;49.900;8.208;2022-12-18T05:16:17;-7.30;99.90
18456;DHT22;9357;49.900;8.208;2022-12-18T05:17:50;-7.20;99.90
18456;DHT22;9357;49.900;8.208;2022-12-18T05:19:21;-7.20;99.90
18456;DHT22;9357;49.900;8.208;2022-12-18T05:20:56;-7.20;99.90
18456;DHT22;9357;49.900;8.208;2022-12-18T05:22:29;-7.20;99.90
18456;DHT22;9357;49.900;8.208;2022-12-18T05:24:01;-7.20;99.90
18456;DHT22;9357;49.900;8.208;2022-12-18T05:25:33;-7.20;99.90
18456;DHT22;9357;49.900;8.208;2022-12-18T05:27:06;-7.20;99.90
18456;DHT22;9357;49.900;8.208;2022-12-18T05:28:39;-7.20;99.90
18456;DHT22;9357;49.900;8.208;2022-12-18T05:30:12;-7.20;99.90
18456;DHT22;9357;49.900;8.208;2022-12-18T05:31:44;-7.20;99.90
18456;DHT22;9357;49.900;8.208;2022-12-18T05:33:17;-7.30;99.90
18456;DHT22;9357;49.900;8.208;2022-12-18T05:34:50;-7.30;99.90
18456;DHT22;9357;49.900;8.208;2022-12-18T05:36:24;-7.30;99.90
18456;DHT22;9357;49.900;8.208;2022-12-18T05:37:57;-7.40;99.90
18456;DHT22;9357;49.900;8.208;2022-12-18T05:39:30;-7.40;99.90
18456;DHT22;9357;49.900;8.208;2022-12-18T05:41:02;-7.40;99.90
18456;DHT22;9357;49.900;8.208;2022-12-18T05:42:35;-7.30;99.90
18456;DHT22;9357;49.900;8.208;2022-12-18T05:44:08;-7.40;99.90
18456;DHT22;9357;49.900;8.208;2022-12-18T05:45:41;-7.40;99.90
18456;DHT22;9357;49.900;8.208;2022-12-18T05:47:13;-7.40;99.90
18456;DHT22;9357;49.900;8.208;2022-12-18T05:48:46;-7.40;99.90
18456;DHT22;9357;49.900;8.208;2022-12-18T05:50:19;-7.40;99.90
18456;DHT22;9357;49.900;8.208;2022-12-18T05:51:52;-7.50;99.90
18456;DHT22;9357;49.900;8.208;2022-12-18T05:53:25;-7.40;99.90
18456;DHT22;9357;49.900;8.208;2022-12-18T05:54:58;-7.40;99.90
18456;DHT22;9357;49.900;8.208;2022-12-18T05:56:31;-7.50;99.90
18456;DHT22;9357;49.900;8.208;2022-12-18T05:58:04;-7.40;99.90
18456;DHT22;9357;49.900;8.208;2022-12-18T05:59:37;-7.50;99.90
18456;DHT22;9357;49.900;8.208;2022-12-18T06:01:12;-7.50;99.90
18456;DHT22;9357;49.900;8.208;2022-12-18T06:02:46;-7.40;99.90
18456;DHT22;9357;49.900;8.208;2022-12-18T06:04:19;-7.40;99.90
18456;DHT22;9357;49.900;8.208;2022-12-18T06:05:52;-7.40;99.90
18456;DHT22;9357;49.900;8.208;2022-12-18T06:07:26;-7.40;99.90
18456;DHT22;9357;49.900;8.208;2022-12-18T06:08:58;-7.40;99.90
18456;DHT22;9357;49.900;8.208;2022-12-18T06:10:33;-7.40;99.90
18456;DHT22;9357;49.900;8.208;2022-12-18T06:12:05;-7.30;99.90
18456;DHT22;9357;49.900;8.208;2022-12-18T06:13:38;-7.30;99.90
18456;DHT22;9357;49.900;8.208;2022-12-18T06:15:12;-7.30;99.90
18456;DHT22;9357;49.900;8.208;2022-12-18T06:16:44;-7.20;99.90
18456;DHT22;9357;49.900;8.208;2022-12-18T06:18:17;-7.20;99.90
18456;DHT22;9357;49.900;8.208;2022-12-18T06:19:50;-7.20;99.90
18456;DHT22;9357;49.900;8.208;2022-12-18T06:21:23;-7.20;99.90
18456;DHT22;9357;49.900;8.208;2022-12-18T06:22:57;-7.20;99.90
18456;DHT22;9357;49.900;8.208;2022-12-18T06:24:30;-7.30;99.90
18456;DHT22;9357;49.900;8.208;2022-12-18T06:26:06;-7.30;99.90
18456;DHT22;9357;49.900;8.208;2022-12-18T06:27:39;-7.30;99.90
18456;DHT22;9357;49.900;8.208;2022-12-18T06:29:12;-7.30;99.90
18456;DHT22;9357;49.900;8.208;2022-12-18T06:30:46;-7.30;99.90
18456;DHT22;9357;49.900;8.208;2022-12-18T06:32:19;-7.30;99.90
18456;DHT22;9357;49.900;8.208;2022-12-18T06:33:52;-7.30;99.90
18456;DHT22;9357;49.900;8.208;2022-12-18T06:35:25;-7.30;99.90
18456;DHT22;9357;49.900;8.208;2022-12-18T06:36:58;-7.30;99.90
18456;DHT22;9357;49.900;8.208;2022-12-18T06:38:33;-7.30;99.90
18456;DHT22;9357;49.900;8.208;2022-12-18T06:40:07;-7.30;99.90
18456;DHT22;9357;49.900;8.208;2022-12-18T06:41:40;-7.30;99.90
18456;DHT22;9357;49.900;8.208;2022-12-18T06:43:13;-7.20;99.90
18456;DHT22;9357;49.900;8.208;2022-12-18T06:44:46;-7.30;99.90
18456;DHT22;9357;49.900;8.208;2022-12-18T06:46:18;-7.30;99.90
18456;DHT22;9357;49.900;8.208;2022-12-18T06:47:51;-7.20;99.90
18456;DHT22;9357;49.900;8.208;2022-12-18T06:49:24;-7.30;99.90
18456;DHT22;9357;49.900;8.208;2022-12-18T06:51:01;-7.20;99.90
18456;DHT22;9357;49.900;8.208;2022-12-18T06:52:34;-7.30;99.90
18456;DHT22;9357;49.900;8.208;2022-12-18T06:54:09;-7.30;99.90
18456;DHT22;9357;49.900;8.208;2022-12-18T06:55:42;-7.30;99.90
18456;DHT22;9357;49.900;8.208;2022-12-18T06:57:15;-7.30;99.90
18456;DHT22;9357;49.900;8.208;2022-12-18T06:58:48;-7.40;99.90
18456;DHT22;9357;49.900;8.208;2022-12-18T07:00:20;-7.30;99.90
18456;DHT22;9357;49.900;8.208;2022-12-18T07:01:53;-7.30;99.90
18456;DHT22;9357;49.900;8.208;2022-12-18T07:03:26;-7.40;99.90
18456;DHT22;9357;49.900;8.208;2022-12-18T07:04:58;-7.40;99.90
18456;DHT22;9357;49.900;8.208;2022-12-18T07:06:38;-7.40;99.90
18456;DHT22;9357;49.900;8.208;2022-12-18T07:08:10;-7.40;99.90
18456;DHT22;9357;49.900;8.208;2022-12-18T07:09:44;-7.40;99.90
18456;DHT22;9357;49.900;8.208;2022-12-18T07:11:18;-7.40;99.90
18456;DHT22;9357;49.900;8.208;2022-12-18T07:12:51;-7.30;99.90
18456;DHT22;9357;49.900;8.208;2022-12-18T07:14:23;-7.30;99.90
18456;DHT22;9357;49.900;8.208;2022-12-18T07:16:04;-7.30;99.90
18456;DHT22;9357;49.900;8.208;2022-12-18T07:17:45;-7.40;99.90
18456;DHT22;9357;49.900;8.208;2022-12-18T07:19:18;-7.40;99.90
18456;DHT22;9357;49.900;8.208;2022-12-18T07:20:51;-7.30;99.90
18456;DHT22;9357;49.900;8.208;2022-12-18T07:22:23;-7.40;99.90
18456;DHT22;9357;49.900;8.208;2022-12-18T07:23:57;-7.30;99.90
18456;DHT22;9357;49.900;8.208;2022-12-18T07:25:33;-7.30;99.90
18456;DHT22;9357;49.900;8.208;2022-12-18T07:27:06;-7.30;99.90
18456;DHT22;9357;49.900;8.208;2022-12-18T07:28:41;-7.30;99.90
18456;DHT22;9357;49.900;8.208;2022-12-18T07:30:13;-7.30;99.90
18456;DHT22;9357;49.900;8.208;2022-12-18T07:31:46;-7.30;99.90
18456;DHT22;9357;49.900;8.208;2022-12-18T07:33:19;-7.30;99.90
18456;DHT22;9357;49.900;8.208;2022-12-18T07:34:52;-7.30;99.90
18456;DHT22;9357;49.900;8.208;2022-12-18T07:36:25;-7.30;99.90
18456;DHT22;9357;49.900;8.208;2022-12-18T07:38:01;-7.30;99.90
18456;DHT22;9357;49.900;8.208;2022-12-18T07:39:34;-7.30;99.90
18456;DHT22;9357;49.900;8.208;2022-12-18T07:41:10;-7.30;99.90
18456;DHT22;9357;49.900;8.208;2022-12-18T07:42:43;-7.40;99.90
18456;DHT22;9357;49.900;8.208;2022-12-18T07:44:16;-7.40;99.90
18456;DHT22;9357;49.900;8.208;2022-12-18T07:45:49;-7.40;99.90
18456;DHT22;9357;49.900;8.208;2022-12-18T07:47:22;-7.40;99.90
18456;DHT22;9357;49.900;8.208;2022-12-18T07:48:55;-7.50;99.90
18456;DHT22;9357;49.900;8.208;2022-12-18T07:50:27;-7.50;99.90
18456;DHT22;9357;49.900;8.208;2022-12-18T07:52:00;-7.60;99.90
18456;DHT22;9357;49.900;8.208;2022-12-18T07:53:34;-7.60;99.90
18456;DHT22;9357;49.900;8.208;2022-12-18T07:55:08;-7.60;99.90
18456;DHT22;9357;49.900;8.208;2022-12-18T07:56:42;-7.60;99.90
18456;DHT22;9357;49.900;8.208;2022-12-18T07:58:15;-7.70;99.90
18456;DHT22;9357;49.900;8.208;2022-12-18T07:59:48;-7.70;99.90
18456;DHT22;9357;49.900;8.208;2022-12-18T08:01:21;-7.70;99.90
18456;DHT22;9357;49.900;8.208;2022-12-18T08:02:54;-7.60;99.90
18456;DHT22;9357;49.900;8.208;2022-12-18T08:04:27;-7.60;99.90
18456;DHT22;9357;49.900;8.208;2022-12-18T08:06:00;-7.60;99.90
18456;DHT22;9357;49.900;8.208;2022-12-18T08:07:33;-7.60;99.90
18456;DHT22;9357;49.900;8.208;2022-12-18T08:09:06;-7.60;99.90
18456;DHT22;9357;49.900;8.208;2022-12-18T08:10:40;-7.60;99.90
18456;DHT22;9357;49.900;8.208;2022-12-18T08:12:14;-7.50;99.90
18456;DHT22;9357;49.900;8.208;2022-12-18T08:13:46;-7.50;99.90
18456;DHT22;9357;49.900;8.208;2022-12-18T08:15:20;-7.50;99.90
18456;DHT22;9357;49.900;8.208;2022-12-18T08:16:53;-7.50;99.90
18456;DHT22;9357;49.900;8.208;2022-12-18T08:18:25;-7.50;99.90
18456;DHT22;9357;49.900;8.208;2022-12-18T08:19:58;-7.50;99.90
18456;DHT22;9357;49.900;8.208;2022-12-18T08:21:32;-7.40;99.90
18456;DHT22;9357;49.900;8.208;2022-12-18T08:23:04;-7.40;99.90
18456;DHT22;9357;49.900;8.208;2022-12-18T08:24:37;-7.40;99.90
18456;DHT22;9357;49.900;8.208;2022-12-18T08:26:10;-7.30;99.90
18456;DHT22;9357;49.900;8.208;2022-12-18T08:27:45;-7.30;99.90
18456;DHT22;9357;49.900;8.208;2022-12-18T08:29:18;-7.30;99.90
18456;DHT22;9357;49.900;8.208;2022-12-18T08:30:52;-7.30;99.90
18456;DHT22;9357;49.900;8.208;2022-12-18T08:32:26;-7.30;99.90
18456;DHT22;9357;49.900;8.208;2022-12-18T08:33:59;-7.30;99.90
18456;DHT22;9357;49.900;8.208;2022-12-18T08:35:35;-7.30;99.90
18456;DHT22;9357;49.900;8.208;2022-12-18T08:37:16;-7.30;99.90
18456;DHT22;9357;49.900;8.208;2022-12-18T08:38:48;-7.30;99.90
18456;DHT22;9357;49.900;8.208;2022-12-18T08:40:21;-7.30;99.90
18456;DHT22;9357;49.900;8.208;2022-12-18T08:41:54;-7.30;99.90
18456;DHT22;9357;49.900;8.208;2022-12-18T08:43:46;-7.30;99.90
18456;DHT22;9357;49.900;8.208;2022-12-18T08:45:36;-7.20;99.90
18456;DHT22;9357;49.900;8.208;2022-12-18T08:47:09;-7.20;99.90
18456;DHT22;9357;49.900;8.208;2022-12-18T08:48:42;-7.20;99.90
18456;DHT22;9357;49.900;8.208;2022-12-18T08:50:15;-7.10;99.90
18456;DHT22;9357;49.900;8.208;2022-12-18T08:51:48;-7.10;99.90
18456;DHT22;9357;49.900;8.208;2022-12-18T08:53:26;-7.10;99.90
18456;DHT22;9357;49.900;8.208;2022-12-18T08:55:07;-7.10;99.90
18456;DHT22;9357;49.900;8.208;2022-12-18T08:56:40;-7.00;99.90
18456;DHT22;9357;49.900;8.208;2022-12-18T08:58:13;-7.00;99.90
18456;DHT22;9357;49.900;8.208;2022-12-18T08:59:47;-7.00;99.90
18456;DHT22;9357;49.900;8.208;2022-12-18T09:01:20;-7.00;99.90
18456;DHT22;9357;49.900;8.208;2022-12-18T09:02:53;-7.00;99.90
18456;DHT22;9357;49.900;8.208;2022-12-18T09:04:26;-7.00;99.90
18456;DHT22;9357;49.900;8.208;2022-12-18T09:05:59;-6.90;99.90
18456;DHT22;9357;49.900;8.208;2022-12-18T09:07:31;-6.90;99.90
18456;DHT22;9357;49.900;8.208;2022-12-18T09:09:05;-6.90;99.90
18456;DHT22;9357;49.900;8.208;2022-12-18T09:10:41;-6.90;99.90
18456;DHT22;9357;49.900;8.208;2022-12-18T09:12:14;-6.80;99.90
18456;DHT22;9357;49.900;8.208;2022-12-18T09:13:47;-6.80;99.90
18456;DHT22;9357;49.900;8.208;2022-12-18T09:15:21;-6.70;99.90
18456;DHT22;9357;49.900;8.208;2022-12-18T09:16:54;-6.70;99.90
18456;DHT22;9357;49.900;8.208;2022-12-18T09:18:27;-6.70;99.90
18456;DHT22;9357;49.900;8.208;2022-12-18T09:20:00;-6.60;99.90
18456;DHT22;9357;49.900;8.208;2022-12-18T09:21:34;-6.50;99.90
18456;DHT22;9357;49.900;8.208;2022-12-18T09:23:08;-6.50;99.90
18456;DHT22;9357;49.900;8.208;2022-12-18T09:24:41;-6.40;99.90
18456;DHT22;9357;49.900;8.208;2022-12-18T09:26:14;-6.40;99.90
18456;DHT22;9357;49.900;8.208;2022-12-18T09:27:47;-6.40;99.90
18456;DHT22;9357;49.900;8.208;2022-12-18T09:29:20;-6.40;99.90
18456;DHT22;9357;49.900;8.208;2022-12-18T09:30:54;-6.30;99.90
18456;DHT22;9357;49.900;8.208;2022-12-18T09:32:27;-6.30;99.90
18456;DHT22;9357;49.900;8.208;2022-12-18T09:33:59;-6.30;99.90
18456;DHT22;9357;49.900;8.208;2022-12-18T09:35:32;-6.30;99.90
18456;DHT22;9357;49.900;8.208;2022-12-18T09:37:08;-6.30;99.90
18456;DHT22;9357;49.900;8.208;2022-12-18T09:38:41;-6.20;99.90
18456;DHT22;9357;49.900;8.208;2022-12-18T09:40:15;-6.20;99.90
18456;DHT22;9357;49.900;8.208;2022-12-18T09:41:51;-6.20;99.90
18456;DHT22;9357;49.900;8.208;2022-12-18T09:43:29;-6.20;99.90
18456;DHT22;9357;49.900;8.208;2022-12-18T09:45:05;-6.20;99.90
18456;DHT22;9357;49.900;8.208;2022-12-18T09:46:43;-6.10;99.90
18456;DHT22;9357;49.900;8.208;2022-12-18T09:48:21;-6.20;99.90
18456;DHT22;9357;49.900;8.208;2022-12-18T09:49:59;-6.20;99.90
18456;DHT22;9357;49.900;8.208;2022-12-18T09:51:36;-6.10;99.90
18456;DHT22;9357;49.900;8.208;2022-12-18T09:53:14;-6.10;99.90
18456;DHT22;9357;49.900;8.208;2022-12-18T09:54:52;-6.10;99.90
18456;DHT22;9357;49.900;8.208;2022-12-18T09:56:28;-6.00;99.90
18456;DHT22;9357;49.900;8.208;2022-12-18T09:58:07;-6.00;99.90
18456;DHT22;9357;49.900;8.208;2022-12-18T09:59:48;-5.90;99.90
18456;DHT22;9357;49.900;8.208;2022-12-18T10:01:22;-5.80;99.90
18456;DHT22;9357;49.900;8.208;2022-12-18T10:03:08;-5.80;99.90
18456;DHT22;9357;49.900;8.208;2022-12-18T10:04:41;-5.80;99.90
18456;DHT22;9357;49.900;8.208;2022-12-18T10:06:18;-5.70;99.90
18456;DHT22;9357;49.900;8.208;2022-12-18T10:07:58;-5.70;99.90